createdAt,value
2023-04-16T00:00:27.533Z,1016.18
2023-04-16T00:01:27.578Z,1016.14
2023-04-16T00:02:27.670Z,1016.19
2023-04-16T00:03:27.746Z,1016.14
2023-04-16T00:04:27.596Z,1016.16
2023-04-16T00:05:27.517Z,1016.10
2023-04-16T00:06:27.462Z,1016.17
2023-04-16T00:07:27.511Z,1016.13
2023-04-16T00:08:27.484Z,1016.15
2023-04-16T00:09:28.446Z,1016.13
2023-04-16T00:10:27.419Z,1016.13
2023-04-16T00:11:27.450Z,1016.20
2023-04-16T00:12:27.450Z,1016.16
2023-04-16T00:13:27.393Z,1016.22
2023-04-16T00:14:27.473Z,1016.20
2023-04-16T00:15:27.384Z,1016.13
2023-04-16T00:16:27.404Z,1016.17
2023-04-16T00:17:27.451Z,1016.15
2023-04-16T00:18:27.345Z,1016.17
2023-04-16T00:19:27.319Z,1016.16
2023-04-16T00:20:27.352Z,1016.19
2023-04-16T00:21:27.320Z,1016.14
2023-04-16T00:22:28.288Z,1016.15
2023-04-16T00:23:27.315Z,1016.16
2023-04-16T00:24:27.278Z,1016.18
2023-04-16T00:25:27.251Z,1016.15
2023-04-16T00:26:27.241Z,1016.12
2023-04-16T00:27:27.251Z,1016.12
2023-04-16T00:28:27.228Z,1016.14
2023-04-16T00:29:27.211Z,1016.10
2023-04-16T00:30:27.222Z,1016.13
2023-04-16T00:31:27.262Z,1016.16
2023-04-16T00:32:27.240Z,1016.17
2023-04-16T00:33:27.174Z,1016.13
2023-04-16T00:34:27.186Z,1016.14
2023-04-16T00:35:27.153Z,1016.16
2023-04-16T00:36:27.139Z,1016.13
2023-04-16T00:37:27.147Z,1016.15
2023-04-16T00:38:27.124Z,1016.14
2023-04-16T00:39:27.125Z,1016.12
2023-04-16T00:40:27.093Z,1016.16
2023-04-16T00:41:27.081Z,1016.19
2023-04-16T00:42:27.058Z,1016.22
2023-04-16T00:43:27.101Z,1016.24
2023-04-16T00:44:27.063Z,1016.25
2023-04-16T00:45:27.040Z,1016.21
2023-04-16T00:46:27.087Z,1016.17
2023-04-16T00:47:27.064Z,1016.27
2023-04-16T00:48:26.996Z,1016.19
2023-04-16T00:49:27.014Z,1016.27
2023-04-16T00:50:26.989Z,1016.20
2023-04-16T00:51:27.007Z,1016.19
2023-04-16T00:52:27.920Z,1016.26
2023-04-16T00:53:26.950Z,1016.24
2023-04-16T00:54:26.933Z,1016.22
2023-04-16T00:55:26.937Z,1016.22
2023-04-16T00:56:26.946Z,1016.24
2023-04-16T00:57:26.900Z,1016.22
2023-04-16T00:58:26.901Z,1016.24
2023-04-16T00:59:26.881Z,1016.20
2023-04-16T01:00:26.864Z,1016.28
2023-04-16T01:01:27.874Z,1016.22
2023-04-16T01:02:26.983Z,1016.23
2023-04-16T01:03:27.053Z,1016.22
2023-04-16T01:04:26.893Z,1016.26
2023-04-16T01:05:26.814Z,1016.29
2023-04-16T01:06:26.808Z,1016.30
2023-04-16T01:07:26.791Z,1016.23
2023-04-16T01:08:27.250Z,1016.31
2023-04-16T01:09:26.776Z,1016.27
2023-04-16T01:10:26.766Z,1016.23
2023-04-16T01:11:26.746Z,1016.21
2023-04-16T01:12:26.748Z,1016.23
2023-04-16T01:13:26.754Z,1016.27
2023-04-16T01:14:26.702Z,1016.25
2023-04-16T01:15:26.707Z,1016.27
2023-04-16T01:16:27.757Z,1016.27
2023-04-16T01:17:26.745Z,1016.33
2023-04-16T01:18:26.668Z,1016.27
2023-04-16T01:19:26.667Z,1016.33
2023-04-16T01:20:26.657Z,1016.37
2023-04-16T01:21:26.633Z,1016.36
2023-04-16T01:22:26.615Z,1016.39
2023-04-16T01:23:26.621Z,1016.43
2023-04-16T01:24:26.617Z,1016.40
2023-04-16T01:25:26.617Z,1016.40
2023-04-16T01:26:26.571Z,1016.38
2023-04-16T01:27:26.568Z,1016.42
2023-04-16T01:28:26.556Z,1016.45
2023-04-16T01:29:26.590Z,1016.45
2023-04-16T01:30:26.556Z,1016.46
2023-04-16T01:31:26.579Z,1016.47
2023-04-16T01:32:27.359Z,1016.47
2023-04-16T01:33:26.506Z,1016.43
2023-04-16T01:34:26.501Z,1016.40
2023-04-16T01:35:27.485Z,1016.46
2023-04-16T01:36:26.459Z,1016.49
2023-04-16T01:37:28.006Z,1016.42
2023-04-16T01:38:26.454Z,1016.47
2023-04-16T01:39:26.451Z,1016.43
2023-04-16T01:40:27.879Z,1016.46
2023-04-16T01:41:31.295Z,1016.50
2023-04-16T01:42:26.420Z,1016.48
2023-04-16T01:43:26.447Z,1016.44
2023-04-16T01:44:26.675Z,1016.45
2023-04-16T01:45:26.373Z,1016.45
2023-04-16T01:46:27.367Z,1016.41
2023-04-16T01:47:26.476Z,1016.41
2023-04-16T01:48:26.337Z,1016.39
2023-04-16T01:49:26.351Z,1016.44
2023-04-16T01:50:26.381Z,1016.43
2023-04-16T01:51:26.324Z,1016.48
2023-04-16T01:52:26.300Z,1016.49
2023-04-16T01:53:26.306Z,1016.43
2023-04-16T01:54:26.292Z,1016.48
2023-04-16T01:55:26.258Z,1016.49
2023-04-16T01:56:27.235Z,1016.48
2023-04-16T01:57:26.248Z,1016.41
2023-04-16T01:58:27.222Z,1016.41
2023-04-16T01:59:26.244Z,1016.48
2023-04-16T02:00:26.227Z,1016.46
2023-04-16T02:01:26.316Z,1016.44
2023-04-16T02:02:26.776Z,1016.43
2023-04-16T02:03:27.346Z,1016.43
2023-04-16T02:04:26.202Z,1016.38
2023-04-16T02:05:26.178Z,1016.41
2023-04-16T02:06:26.603Z,1016.42
2023-04-16T02:07:26.147Z,1016.41
2023-04-16T02:08:27.072Z,1016.39
2023-04-16T02:09:26.131Z,1016.34
2023-04-16T02:10:26.164Z,1016.40
2023-04-16T02:11:26.572Z,1016.40
2023-04-16T02:12:26.078Z,1016.37
2023-04-16T02:13:27.162Z,1016.37
2023-04-16T02:14:27.020Z,1016.36
2023-04-16T02:15:26.044Z,1016.36
2023-04-16T02:16:26.322Z,1016.34
2023-04-16T02:17:26.071Z,1016.40
2023-04-16T02:18:26.015Z,1016.40
2023-04-16T02:19:26.019Z,1016.40
2023-04-16T02:20:26.990Z,1016.42
2023-04-16T02:21:25.991Z,1016.43
2023-04-16T02:22:27.413Z,1016.46
2023-04-16T02:23:25.954Z,1016.42
2023-04-16T02:24:26.202Z,1016.39
2023-04-16T02:25:26.391Z,1016.42
2023-04-16T02:26:27.811Z,1016.40
2023-04-16T02:27:25.933Z,1016.43
2023-04-16T02:28:25.902Z,1016.42
2023-04-16T02:29:25.875Z,1016.46
2023-04-16T02:30:26.013Z,1016.43
2023-04-16T02:31:25.896Z,1016.40
2023-04-16T02:32:26.829Z,1016.41
2023-04-16T02:33:25.873Z,1016.40
2023-04-16T02:34:27.303Z,1016.45
2023-04-16T02:35:25.808Z,1016.36
2023-04-16T02:36:27.263Z,1016.42
2023-04-16T02:37:25.788Z,1016.41
2023-04-16T02:38:26.609Z,1016.32
2023-04-16T02:39:25.794Z,1016.40
2023-04-16T02:40:27.232Z,1016.44
2023-04-16T02:41:25.764Z,1016.42
2023-04-16T02:42:26.702Z,1016.36
2023-04-16T02:43:26.312Z,1016.44
2023-04-16T02:44:26.684Z,1016.46
2023-04-16T02:45:25.703Z,1016.43
2023-04-16T02:46:25.788Z,1016.47
2023-04-16T02:47:25.730Z,1016.47
2023-04-16T02:48:26.152Z,1016.50
2023-04-16T02:49:26.633Z,1016.52
2023-04-16T02:50:26.629Z,1016.45
2023-04-16T02:51:25.649Z,1016.48
2023-04-16T02:52:25.833Z,1016.46
2023-04-16T02:53:25.630Z,1016.53
2023-04-16T02:54:26.577Z,1016.49
2023-04-16T02:55:25.625Z,1016.48
2023-04-16T02:56:25.678Z,1016.45
2023-04-16T02:57:25.573Z,1016.44
2023-04-16T02:58:25.645Z,1016.50
2023-04-16T02:59:25.550Z,1016.51
2023-04-16T03:00:26.345Z,1016.48
2023-04-16T03:01:25.573Z,1016.47
2023-04-16T03:02:26.182Z,1016.47
2023-04-16T03:03:25.561Z,1016.51
2023-04-16T03:04:27.024Z,1016.44
2023-04-16T03:05:25.495Z,1016.47
2023-04-16T03:06:27.422Z,1016.52
2023-04-16T03:07:25.454Z,1016.45
2023-04-16T03:08:25.488Z,1016.48
2023-04-16T03:09:25.432Z,1016.45
2023-04-16T03:10:26.880Z,1016.44
2023-04-16T03:11:25.430Z,1016.44
2023-04-16T03:12:26.860Z,1016.44
2023-04-16T03:13:25.405Z,1016.43
2023-04-16T03:14:25.838Z,1016.47
2023-04-16T03:15:25.401Z,1016.47
2023-04-16T03:16:26.338Z,1016.45
2023-04-16T03:17:25.383Z,1016.49
2023-04-16T03:18:25.350Z,1016.49
2023-04-16T03:19:25.328Z,1016.50
2023-04-16T03:20:26.149Z,1016.46
2023-04-16T03:21:25.311Z,1016.53
2023-04-16T03:22:26.119Z,1016.51
2023-04-16T03:23:25.279Z,1016.47
2023-04-16T03:24:25.281Z,1016.51
2023-04-16T03:25:25.264Z,1016.49
2023-04-16T03:26:26.120Z,1016.53
2023-04-16T03:27:25.273Z,1016.48
2023-04-16T03:28:26.686Z,1016.52
2023-04-16T03:29:25.222Z,1016.50
2023-04-16T03:30:26.707Z,1016.57
2023-04-16T03:31:25.220Z,1016.58
2023-04-16T03:32:25.650Z,1016.53
2023-04-16T03:33:25.180Z,1016.57
2023-04-16T03:34:25.164Z,1016.57
2023-04-16T03:35:25.175Z,1016.55
2023-04-16T03:36:26.101Z,1016.56
2023-04-16T03:37:26.084Z,1016.59
2023-04-16T03:38:26.080Z,1016.58
2023-04-16T03:39:25.131Z,1016.56
2023-04-16T03:40:25.602Z,1016.56
2023-04-16T03:41:25.109Z,1016.54
2023-04-16T03:42:26.022Z,1016.64
2023-04-16T03:43:25.104Z,1016.58
2023-04-16T03:44:25.133Z,1016.57
2023-04-16T03:45:25.035Z,1016.59
2023-04-16T03:46:25.051Z,1016.52
2023-04-16T03:47:25.139Z,1016.53
2023-04-16T03:48:25.974Z,1016.51
2023-04-16T03:49:25.017Z,1016.54
2023-04-16T03:50:25.057Z,1016.53
2023-04-16T03:51:25.012Z,1016.52
2023-04-16T03:52:24.972Z,1016.51
2023-04-16T03:53:24.974Z,1016.59
2023-04-16T03:54:24.961Z,1016.53
2023-04-16T03:55:24.928Z,1016.55
2023-04-16T03:56:25.392Z,1016.53
2023-04-16T03:57:24.898Z,1016.63
2023-04-16T03:58:24.925Z,1016.57
2023-04-16T03:59:24.933Z,1016.60
2023-04-16T04:00:24.896Z,1016.57
2023-04-16T04:01:24.864Z,1016.57
2023-04-16T04:02:25.063Z,1016.56
2023-04-16T04:03:25.160Z,1016.59
2023-04-16T04:04:25.003Z,1016.55
2023-04-16T04:05:24.835Z,1016.57
2023-04-16T04:06:25.840Z,1016.56
2023-04-16T04:07:24.792Z,1016.63
2023-04-16T04:08:24.803Z,1016.61
2023-04-16T04:09:24.770Z,1016.64
2023-04-16T04:10:24.807Z,1016.60
2023-04-16T04:11:24.748Z,1016.66
2023-04-16T04:12:24.792Z,1016.68
2023-04-16T04:13:24.740Z,1016.68
2023-04-16T04:14:26.205Z,1016.68
2023-04-16T04:15:24.709Z,1016.63
2023-04-16T04:16:24.780Z,1016.70
2023-04-16T04:17:24.773Z,1016.67
2023-04-16T04:18:25.674Z,1016.62
2023-04-16T04:19:24.669Z,1016.66
2023-04-16T04:20:24.698Z,1016.69
2023-04-16T04:21:24.697Z,1016.69
2023-04-16T04:22:24.639Z,1016.71
2023-04-16T04:23:24.613Z,1016.75
2023-04-16T04:24:24.638Z,1016.73
2023-04-16T04:25:24.601Z,1016.71
2023-04-16T04:26:24.667Z,1016.67
2023-04-16T04:27:24.587Z,1016.75
2023-04-16T04:28:24.592Z,1016.72
2023-04-16T04:29:24.565Z,1016.71
2023-04-16T04:30:26.082Z,1016.71
2023-04-16T04:31:24.579Z,1016.74
2023-04-16T04:32:26.075Z,1016.74
2023-04-16T04:33:24.528Z,1016.71
2023-04-16T04:34:24.540Z,1016.80
2023-04-16T04:35:24.489Z,1016.80
2023-04-16T04:36:24.488Z,1016.76
2023-04-16T04:37:25.948Z,1016.80
2023-04-16T04:38:24.505Z,1016.82
2023-04-16T04:39:24.445Z,1016.86
2023-04-16T04:40:24.460Z,1016.82
2023-04-16T04:41:24.422Z,1016.90
2023-04-16T04:42:26.420Z,1016.80
2023-04-16T04:43:24.439Z,1016.88
2023-04-16T04:44:25.378Z,1016.82
2023-04-16T04:45:24.415Z,1016.81
2023-04-16T04:46:24.867Z,1016.89
2023-04-16T04:47:24.369Z,1016.89
2023-04-16T04:48:25.342Z,1016.85
2023-04-16T04:49:24.338Z,1016.86
2023-04-16T04:50:25.165Z,1016.91
2023-04-16T04:51:24.305Z,1016.89
2023-04-16T04:52:24.873Z,1016.94
2023-04-16T04:53:24.350Z,1016.93
2023-04-16T04:54:25.756Z,1016.94
2023-04-16T04:55:24.324Z,1016.93
2023-04-16T04:56:24.316Z,1016.99
2023-04-16T04:57:24.266Z,1016.95
2023-04-16T04:58:25.198Z,1016.95
2023-04-16T04:59:24.703Z,1016.96
2023-04-16T05:00:25.198Z,1016.94
2023-04-16T05:01:24.240Z,1016.99
2023-04-16T05:02:24.511Z,1016.93
2023-04-16T05:03:24.318Z,1017.01
2023-04-16T05:04:25.652Z,1017.03
2023-04-16T05:05:24.177Z,1017.04
2023-04-16T05:06:24.225Z,1017.02
2023-04-16T05:07:24.146Z,1016.99
2023-04-16T05:08:24.155Z,1017.00
2023-04-16T05:09:24.913Z,1017.05
2023-04-16T05:10:25.585Z,1017.03
2023-04-16T05:11:24.118Z,1017.04
2023-04-16T05:12:24.375Z,1017.07
2023-04-16T05:13:24.913Z,1017.07
2023-04-16T05:14:26.038Z,1017.10
2023-04-16T05:15:24.101Z,1017.08
2023-04-16T05:16:24.684Z,1017.12
2023-04-16T05:17:24.231Z,1017.15
2023-04-16T05:18:24.880Z,1017.15
2023-04-16T05:19:24.024Z,1017.11
2023-04-16T05:20:24.009Z,1017.12
2023-04-16T05:21:23.992Z,1017.18
2023-04-16T05:22:24.166Z,1017.13
2023-04-16T05:23:23.997Z,1017.14
2023-04-16T05:24:24.076Z,1017.20
2023-04-16T05:25:23.951Z,1017.18
2023-04-16T05:26:23.976Z,1017.18
2023-04-16T05:27:23.981Z,1017.20
2023-04-16T05:28:23.931Z,1017.25
2023-04-16T05:29:23.903Z,1017.25
2023-04-16T05:30:23.884Z,1017.21
2023-04-16T05:31:24.000Z,1017.29
2023-04-16T05:32:24.344Z,1017.21
2023-04-16T05:33:23.853Z,1017.22
2023-04-16T05:34:23.842Z,1017.21
2023-04-16T05:35:23.840Z,1017.26
2023-04-16T05:36:23.817Z,1017.26
2023-04-16T05:37:23.825Z,1017.24
2023-04-16T05:38:23.834Z,1017.29
2023-04-16T05:39:23.781Z,1017.24
2023-04-16T05:40:23.823Z,1017.32
2023-04-16T05:41:23.773Z,1017.30
2023-04-16T05:42:23.771Z,1017.35
2023-04-16T05:43:23.738Z,1017.35
2023-04-16T05:44:25.245Z,1017.38
2023-04-16T05:45:24.055Z,1017.37
2023-04-16T05:46:23.840Z,1017.35
2023-04-16T05:47:23.723Z,1017.38
2023-04-16T05:48:24.173Z,1017.41
2023-04-16T05:49:23.695Z,1017.41
2023-04-16T05:50:23.713Z,1017.44
2023-04-16T05:51:23.656Z,1017.41
2023-04-16T05:52:23.673Z,1017.39
2023-04-16T05:53:23.671Z,1017.46
2023-04-16T05:54:23.707Z,1017.46
2023-04-16T05:55:23.617Z,1017.41
2023-04-16T05:56:23.590Z,1017.43
2023-04-16T05:57:23.611Z,1017.45
2023-04-16T05:58:23.659Z,1017.48
2023-04-16T05:59:23.570Z,1017.48
2023-04-16T06:00:23.573Z,1017.53
2023-04-16T06:01:23.545Z,1017.47
2023-04-16T06:02:23.667Z,1017.55
2023-04-16T06:03:23.592Z,1017.55
2023-04-16T06:04:23.612Z,1017.58
2023-04-16T06:05:23.545Z,1017.58
2023-04-16T06:06:23.714Z,1017.62
2023-04-16T06:07:23.536Z,1017.58
2023-04-16T06:08:23.726Z,1017.64
2023-04-16T06:09:23.446Z,1017.58
2023-04-16T06:10:23.710Z,1017.66
2023-04-16T06:11:23.426Z,1017.63
2023-04-16T06:12:23.633Z,1017.62
2023-04-16T06:13:23.427Z,1017.64
2023-04-16T06:14:23.414Z,1017.65
2023-04-16T06:15:23.398Z,1017.67
2023-04-16T06:16:23.733Z,1017.70
2023-04-16T06:17:23.483Z,1017.67
2023-04-16T06:18:23.380Z,1017.70
2023-04-16T06:19:23.364Z,1017.72
2023-04-16T06:20:24.828Z,1017.73
2023-04-16T06:21:23.331Z,1017.71
2023-04-16T06:22:23.336Z,1017.69
2023-04-16T06:23:23.324Z,1017.79
2023-04-16T06:24:23.303Z,1017.73
2023-04-16T06:25:23.328Z,1017.76
2023-04-16T06:26:23.278Z,1017.81
2023-04-16T06:27:23.266Z,1017.84
2023-04-16T06:28:23.254Z,1017.87
2023-04-16T06:29:33.507Z,1017.86
2023-04-16T06:30:25.207Z,1017.92
2023-04-16T06:31:23.250Z,1017.89
2023-04-16T06:32:23.256Z,1017.83
2023-04-16T06:33:23.223Z,1017.82
2023-04-16T06:34:23.177Z,1017.88
2023-04-16T06:35:23.178Z,1017.86
2023-04-16T06:36:23.149Z,1017.92
2023-04-16T06:37:23.151Z,1017.86
2023-04-16T06:38:23.186Z,1017.90
2023-04-16T06:39:23.135Z,1017.94
2023-04-16T06:40:23.120Z,1017.86
2023-04-16T06:41:23.106Z,1017.90
2023-04-16T06:42:23.254Z,1017.91
2023-04-16T06:43:24.074Z,1017.92
2023-04-16T06:44:23.100Z,1017.97
2023-04-16T06:45:23.046Z,1017.97
2023-04-16T06:46:24.044Z,1017.96
2023-04-16T06:47:23.083Z,1017.97
2023-04-16T06:48:23.043Z,1017.94
2023-04-16T06:49:23.153Z,1017.92
2023-04-16T06:50:23.022Z,1017.94
2023-04-16T06:51:24.058Z,1017.92
2023-04-16T06:52:22.970Z,1017.96
2023-04-16T06:53:22.987Z,1017.97
2023-04-16T06:54:22.974Z,1017.95
2023-04-16T06:55:22.978Z,1017.94
2023-04-16T06:56:23.020Z,1017.93
2023-04-16T06:57:22.980Z,1017.92
2023-04-16T06:58:22.900Z,1017.97
2023-04-16T06:59:22.922Z,1017.93
2023-04-16T07:00:22.921Z,1017.93
2023-04-16T07:01:23.006Z,1017.93
2023-04-16T07:02:22.968Z,1017.95
2023-04-16T07:03:23.986Z,1017.95
2023-04-16T07:04:22.870Z,1017.96
2023-04-16T07:05:22.866Z,1017.96
2023-04-16T07:06:22.839Z,1017.98
2023-04-16T07:07:22.826Z,1017.97
2023-04-16T07:08:22.817Z,1018.00
2023-04-16T07:09:22.812Z,1017.94
2023-04-16T07:10:23.634Z,1017.97
2023-04-16T07:11:22.784Z,1017.98
2023-04-16T07:12:23.079Z,1017.98
2023-04-16T07:13:22.748Z,1017.98
2023-04-16T07:14:22.766Z,1018.02
2023-04-16T07:15:22.714Z,1018.00
2023-04-16T07:16:22.791Z,1017.98
2023-04-16T07:17:23.159Z,1018.01
2023-04-16T07:18:22.760Z,1018.04
2023-04-16T07:19:22.687Z,1018.01
2023-04-16T07:20:22.678Z,1018.03
2023-04-16T07:21:22.676Z,1017.98
2023-04-16T07:22:22.638Z,1018.00
2023-04-16T07:23:22.704Z,1018.08
2023-04-16T07:24:22.647Z,1017.98
2023-04-16T07:25:22.646Z,1018.01
2023-04-16T07:26:22.612Z,1018.02
2023-04-16T07:27:23.579Z,1018.04
2023-04-16T07:28:22.641Z,1018.00
2023-04-16T07:29:22.621Z,1018.04
2023-04-16T07:30:22.561Z,1018.05
2023-04-16T07:31:22.572Z,1018.04
2023-04-16T07:32:23.096Z,1018.02
2023-04-16T07:33:22.537Z,1018.04
2023-04-16T07:34:22.551Z,1018.08
2023-04-16T07:35:22.561Z,1018.08
2023-04-16T07:36:22.486Z,1018.03
2023-04-16T07:37:22.494Z,1018.04
2023-04-16T07:38:23.437Z,1018.07
2023-04-16T07:39:22.488Z,1018.10
2023-04-16T07:40:22.688Z,1018.10
2023-04-16T07:41:22.464Z,1018.13
2023-04-16T07:42:22.425Z,1018.16
2023-04-16T07:43:22.443Z,1018.11
2023-04-16T07:44:22.408Z,1018.15
2023-04-16T07:45:22.425Z,1018.16
2023-04-16T07:46:22.448Z,1018.14
2023-04-16T07:47:22.422Z,1018.18
2023-04-16T07:48:22.409Z,1018.22
2023-04-16T07:49:22.374Z,1018.21
2023-04-16T07:50:22.349Z,1018.22
2023-04-16T07:51:22.352Z,1018.19
2023-04-16T07:52:22.315Z,1018.21
2023-04-16T07:53:23.366Z,1018.26
2023-04-16T07:54:22.294Z,1018.22
2023-04-16T07:55:22.297Z,1018.17
2023-04-16T07:56:22.259Z,1018.26
2023-04-16T07:57:22.267Z,1018.26
2023-04-16T07:58:22.275Z,1018.34
2023-04-16T07:59:23.978Z,1018.36
2023-04-16T08:00:22.324Z,1018.34
2023-04-16T08:01:22.226Z,1018.36
2023-04-16T08:02:22.294Z,1018.36
2023-04-16T08:03:22.308Z,1018.37
2023-04-16T08:04:22.407Z,1018.38
2023-04-16T08:05:22.287Z,1018.43
2023-04-16T08:06:22.150Z,1018.44
2023-04-16T08:07:22.157Z,1018.44
2023-04-16T08:08:22.146Z,1018.36
2023-04-16T08:09:23.133Z,1018.41
2023-04-16T08:10:22.157Z,1018.42
2023-04-16T08:11:22.320Z,1018.43
2023-04-16T08:12:22.092Z,1018.47
2023-04-16T08:13:22.099Z,1018.43
2023-04-16T08:14:22.111Z,1018.47
2023-04-16T08:15:22.084Z,1018.55
2023-04-16T08:16:22.139Z,1018.53
2023-04-16T08:17:22.364Z,1018.52
2023-04-16T08:18:22.026Z,1018.49
2023-04-16T08:19:22.056Z,1018.54
2023-04-16T08:20:22.024Z,1018.51
2023-04-16T08:21:22.063Z,1018.54
2023-04-16T08:22:22.002Z,1018.54
2023-04-16T08:23:21.986Z,1018.52
2023-04-16T08:24:22.967Z,1018.53
2023-04-16T08:25:21.944Z,1018.57
2023-04-16T08:26:21.952Z,1018.52
2023-04-16T08:27:21.998Z,1018.54
2023-04-16T08:28:21.949Z,1018.54
2023-04-16T08:29:21.971Z,1018.49
2023-04-16T08:30:22.064Z,1018.55
2023-04-16T08:31:21.959Z,1018.55
2023-04-16T08:32:21.930Z,1018.52
2023-04-16T08:33:21.896Z,1018.55
2023-04-16T08:34:22.884Z,1018.51
2023-04-16T08:35:21.858Z,1018.54
2023-04-16T08:36:21.856Z,1018.55
2023-04-16T08:37:21.840Z,1018.57
2023-04-16T08:38:22.780Z,1018.51
2023-04-16T08:39:21.816Z,1018.58
2023-04-16T08:40:21.845Z,1018.56
2023-04-16T08:41:21.820Z,1018.63
2023-04-16T08:42:21.781Z,1018.60
2023-04-16T08:43:21.759Z,1018.61
2023-04-16T08:44:21.773Z,1018.56
2023-04-16T08:45:21.764Z,1018.61
2023-04-16T08:46:21.769Z,1018.61
2023-04-16T08:47:21.801Z,1018.57
2023-04-16T08:48:21.692Z,1018.56
2023-04-16T08:49:21.709Z,1018.62
2023-04-16T08:50:22.162Z,1018.63
2023-04-16T08:51:21.669Z,1018.60
2023-04-16T08:52:21.714Z,1018.65
2023-04-16T08:53:21.665Z,1018.67
2023-04-16T08:54:21.632Z,1018.64
2023-04-16T08:55:21.649Z,1018.70
2023-04-16T08:56:21.615Z,1018.68
2023-04-16T08:57:21.611Z,1018.72
2023-04-16T08:58:22.597Z,1018.69
2023-04-16T08:59:21.633Z,1018.69
2023-04-16T09:00:21.574Z,1018.72
2023-04-16T09:01:21.600Z,1018.74
2023-04-16T09:02:21.711Z,1018.70
2023-04-16T09:03:21.812Z,1018.73
2023-04-16T09:04:21.585Z,1018.68
2023-04-16T09:05:21.520Z,1018.76
2023-04-16T09:06:22.498Z,1018.78
2023-04-16T09:07:21.482Z,1018.80
2023-04-16T09:08:21.507Z,1018.83
2023-04-16T09:09:21.459Z,1018.82
2023-04-16T09:10:22.438Z,1018.86
2023-04-16T09:11:21.455Z,1018.85
2023-04-16T09:12:21.432Z,1018.84
2023-04-16T09:13:21.441Z,1018.80
2023-04-16T09:14:22.371Z,1018.80
2023-04-16T09:15:21.624Z,1018.82
2023-04-16T09:16:21.486Z,1018.85
2023-04-16T09:17:21.651Z,1018.79
2023-04-16T09:18:21.499Z,1018.81
2023-04-16T09:19:21.379Z,1018.78
2023-04-16T09:20:21.443Z,1018.82
2023-04-16T09:21:23.760Z,1018.79
2023-04-16T09:22:21.319Z,1018.77
2023-04-16T09:23:21.894Z,1018.82
2023-04-16T09:24:21.363Z,1018.82
2023-04-16T09:25:21.312Z,1018.82
2023-04-16T09:26:22.036Z,1018.82
2023-04-16T09:27:23.270Z,1018.84
2023-04-16T09:28:21.284Z,1018.89
2023-04-16T09:29:21.274Z,1018.87
2023-04-16T09:30:22.219Z,1018.86
2023-04-16T09:31:22.271Z,1018.85
2023-04-16T09:32:22.222Z,1018.86
2023-04-16T09:33:21.732Z,1018.87
2023-04-16T09:34:22.456Z,1018.82
2023-04-16T09:35:21.313Z,1018.88
2023-04-16T09:36:21.466Z,1018.88
2023-04-16T09:37:22.622Z,1018.81
2023-04-16T09:38:22.115Z,1018.91
2023-04-16T09:39:21.529Z,1018.87
2023-04-16T09:40:22.649Z,1018.87
2023-04-16T09:41:21.136Z,1018.89
2023-04-16T09:42:22.058Z,1018.93
2023-04-16T09:43:21.120Z,1018.88
2023-04-16T09:44:21.138Z,1018.92
2023-04-16T09:45:21.158Z,1018.93
2023-04-16T09:46:21.216Z,1018.92
2023-04-16T09:47:21.112Z,1018.91
2023-04-16T09:48:21.192Z,1019.03
2023-04-16T09:49:21.040Z,1018.92
2023-04-16T09:50:21.096Z,1018.95
2023-04-16T09:51:21.124Z,1018.87
2023-04-16T09:52:22.012Z,1018.94
2023-04-16T09:53:20.998Z,1018.86
2023-04-16T09:54:21.036Z,1018.92
2023-04-16T09:55:21.063Z,1018.88
2023-04-16T09:56:21.151Z,1018.88
2023-04-16T09:57:20.978Z,1018.88
2023-04-16T09:58:20.946Z,1018.93
2023-04-16T09:59:22.926Z,1018.97
2023-04-16T10:00:21.722Z,1018.93
2023-04-16T10:01:21.029Z,1018.90
2023-04-16T10:02:21.896Z,1019.00
2023-04-16T10:03:21.055Z,1018.92
2023-04-16T10:04:21.175Z,1018.90
2023-04-16T10:05:21.764Z,1018.97
2023-04-16T10:06:20.873Z,1018.94
2023-04-16T10:07:21.290Z,1019.00
2023-04-16T10:08:20.866Z,1019.01
2023-04-16T10:09:22.015Z,1019.00
2023-04-16T10:10:22.257Z,1019.07
2023-04-16T10:11:21.713Z,1019.01
2023-04-16T10:12:20.827Z,1018.96
2023-04-16T10:13:20.847Z,1019.02
2023-04-16T10:14:21.106Z,1019.02
2023-04-16T10:15:22.215Z,1019.06
2023-04-16T10:16:20.793Z,1019.03
2023-04-16T10:17:20.867Z,1019.06
2023-04-16T10:18:20.829Z,1019.01
2023-04-16T10:19:20.814Z,1019.00
2023-04-16T10:20:22.142Z,1018.95
2023-04-16T10:21:21.692Z,1019.00
2023-04-16T10:22:20.677Z,1019.00
2023-04-16T10:23:22.129Z,1018.98
2023-04-16T10:24:20.647Z,1018.93
2023-04-16T10:25:20.772Z,1018.96
2023-04-16T10:26:20.761Z,1019.00
2023-04-16T10:27:21.409Z,1018.95
2023-04-16T10:28:21.072Z,1018.98
2023-04-16T10:29:22.112Z,1018.98
2023-04-16T10:30:21.401Z,1019.02
2023-04-16T10:31:20.617Z,1018.95
2023-04-16T10:32:22.068Z,1019.00
2023-04-16T10:33:20.564Z,1018.93
2023-04-16T10:34:21.676Z,1019.01
2023-04-16T10:35:21.318Z,1019.01
2023-04-16T10:36:20.524Z,1018.92
2023-04-16T10:37:21.337Z,1018.90
2023-04-16T10:38:20.491Z,1018.98
2023-04-16T10:39:20.556Z,1018.93
2023-04-16T10:40:21.922Z,1018.98
2023-04-16T10:41:20.609Z,1018.98
2023-04-16T10:42:20.440Z,1018.96
2023-04-16T10:43:20.737Z,1018.99
2023-04-16T10:44:20.439Z,1019.01
2023-04-16T10:45:20.586Z,1018.92
2023-04-16T10:46:20.507Z,1018.94
2023-04-16T10:47:20.413Z,1018.99
2023-04-16T10:48:20.386Z,1018.97
2023-04-16T10:49:20.383Z,1019.00
2023-04-16T10:50:20.357Z,1018.97
2023-04-16T10:51:20.381Z,1018.97
2023-04-16T10:52:20.366Z,1018.95
2023-04-16T10:53:21.788Z,1018.94
2023-04-16T10:54:20.439Z,1018.96
2023-04-16T10:55:20.316Z,1018.94
2023-04-16T10:56:20.316Z,1018.90
2023-04-16T10:57:21.077Z,1018.95
2023-04-16T10:58:20.726Z,1019.01
2023-04-16T10:59:20.579Z,1018.95
2023-04-16T11:00:21.216Z,1018.94
2023-04-16T11:01:20.233Z,1018.96
2023-04-16T11:02:20.486Z,1018.96
2023-04-16T11:03:20.334Z,1018.94
2023-04-16T11:04:20.431Z,1018.90
2023-04-16T11:05:20.177Z,1018.93
2023-04-16T11:06:20.315Z,1018.90
2023-04-16T11:07:20.188Z,1018.92
2023-04-16T11:08:20.334Z,1018.88
2023-04-16T11:09:20.148Z,1018.85
2023-04-16T11:10:21.081Z,1018.88
2023-04-16T11:11:21.614Z,1018.85
2023-04-16T11:12:20.509Z,1018.85
2023-04-16T11:13:20.913Z,1018.83
2023-04-16T11:14:20.298Z,1018.83
2023-04-16T11:15:21.536Z,1018.86
2023-04-16T11:16:21.583Z,1018.86
2023-04-16T11:17:21.434Z,1018.89
2023-04-16T11:18:20.850Z,1018.88
2023-04-16T11:19:20.164Z,1018.95
2023-04-16T11:20:21.575Z,1019.00
2023-04-16T11:21:21.545Z,1018.93
2023-04-16T11:22:20.613Z,1018.89
2023-04-16T11:23:20.110Z,1018.96
2023-04-16T11:24:19.983Z,1018.98
2023-04-16T11:25:19.983Z,1018.97
2023-04-16T11:26:20.051Z,1018.99
2023-04-16T11:27:20.006Z,1018.98
2023-04-16T11:28:19.970Z,1018.99
2023-04-16T11:29:20.034Z,1018.94
2023-04-16T11:30:20.021Z,1018.98
2023-04-16T11:31:20.223Z,1018.93
2023-04-16T11:32:19.909Z,1018.96
2023-04-16T11:33:20.133Z,1018.95
2023-04-16T11:34:20.104Z,1018.97
2023-04-16T11:35:19.868Z,1018.96
2023-04-16T11:36:21.842Z,1018.92
2023-04-16T11:37:19.873Z,1019.03
2023-04-16T11:38:19.857Z,1018.93
2023-04-16T11:39:19.819Z,1018.92
2023-04-16T11:40:20.113Z,1018.95
2023-04-16T11:41:19.816Z,1018.89
2023-04-16T11:42:21.361Z,1018.98
2023-04-16T11:43:19.805Z,1018.98
2023-04-16T11:44:19.756Z,1018.95
2023-04-16T11:45:20.461Z,1019.04
2023-04-16T11:46:27.466Z,1019.04
2023-04-16T11:47:20.945Z,1019.04
2023-04-16T11:48:19.805Z,1019.09
2023-04-16T11:49:19.704Z,1019.02
2023-04-16T11:50:19.706Z,1019.02
2023-04-16T11:51:19.657Z,1019.01
2023-04-16T11:52:19.726Z,1019.02
2023-04-16T11:53:19.675Z,1018.98
2023-04-16T11:54:19.652Z,1019.00
2023-04-16T11:55:19.656Z,1019.04
2023-04-16T11:56:21.074Z,1019.04
2023-04-16T11:57:19.623Z,1019.03
2023-04-16T11:58:19.650Z,1018.96
2023-04-16T11:59:19.792Z,1018.96
2023-04-16T12:00:24.009Z,1018.93
2023-04-16T12:01:21.456Z,1018.95
2023-04-16T12:02:20.690Z,1018.96
2023-04-16T12:03:19.744Z,1018.95
2023-04-16T12:04:19.703Z,1018.97
2023-04-16T12:05:19.599Z,1018.99